Time;durP1;ratioP1;P1;durP2;ratioP2;P2;SDS_P1;SDS_P2;PMS_P1;PMS_P2;Temp;Humidity;BMP_temperature;BMP_pressure;BME280_temperature;BME280_humidity;BME280_pressure;Samples;Min_cycle;Max_cycle;Signal;HPM_P1;HPM_P2
2023/09/18 00:00:58;;;;;;;15.65;8.07;;;461.70;2380.80;;;;;;4812164;29;20034;-84
2023/09/18 00:06:46;;;;;;;13.25;8.00;;;461.70;2380.80;;;;;;4801966;29;20115;-84
2023/09/18 00:09:13;;;;;;;12.50;7.60;;;461.60;2380.80;;;;;;4807440;29;20365;-84
2023/09/18 00:11:40;;;;;;;12.77;7.53;;;461.60;2380.80;;;;;;4805970;29;20482;-84
2023/09/18 00:14:09;;;;;;;12.60;7.93;;;461.50;2380.80;;;;;;4807284;29;20385;-85
2023/09/18 00:16:35;;;;;;;12.25;7.45;;;461.50;2380.80;;;;;;4807743;29;20043;-87
2023/09/18 00:19:02;;;;;;;11.68;7.53;;;461.60;2380.80;;;;;;4809095;29;20370;-86
2023/09/18 00:21:30;;;;;;;14.38;8.23;;;461.60;2380.80;;;;;;4808450;29;20419;-87
2023/09/18 00:23:58;;;;;;;13.60;8.40;;;461.70;2380.80;;;;;;4809069;29;20045;-87
2023/09/18 00:26:24;;;;;;;13.73;8.07;;;461.50;2380.80;;;;;;4808565;29;20422;-84
2023/09/18 00:28:50;;;;;;;12.45;7.70;;;461.50;2380.80;;;;;;4808705;29;20373;-85
2023/09/18 00:31:17;;;;;;;12.35;8.25;;;461.50;2380.80;;;;;;4808576;29;20022;-86
2023/09/18 00:33:43;;;;;;;11.60;7.78;;;461.50;2380.80;;;;;;4807105;29;20042;-87
2023/09/18 00:36:09;;;;;;;12.40;8.18;;;461.50;2380.80;;;;;;4807404;29;20052;-86
2023/09/18 00:38:35;;;;;;;13.98;8.02;;;461.50;2380.80;;;;;;4810618;29;20096;-87
2023/09/18 00:41:02;;;;;;;14.07;7.85;;;461.70;2380.80;;;;;;4811891;29;20027;-86
2023/09/18 00:43:28;;;;;;;13.43;7.85;;;461.70;2380.80;;;;;;4812679;29;20381;-86
2023/09/18 00:45:58;;;;;;;11.95;7.82;;;461.60;2380.80;;;;;;4810798;29;20018;-84
2023/09/18 00:51:47;;;;;;;13.00;7.85;;;486.40;2380.80;;;;;;4812611;29;20087;-86
2023/09/18 00:54:18;;;;;;;13.13;7.97;;;486.40;2380.80;;;;;;4811467;29;20373;-86
2023/09/18 00:56:46;;;;;;;11.82;7.65;;;486.40;2380.80;;;;;;4811672;29;20027;-85
2023/09/18 00:59:13;;;;;;;12.20;7.72;;;486.40;2380.80;;;;;;4810570;29;20465;-86
2023/09/18 01:01:42;;;;;;;12.18;7.95;;;486.40;2380.80;;;;;;4812273;29;20470;-86
2023/09/18 01:04:13;;;;;;;12.18;8.05;;;486.40;2380.80;;;;;;4811026;29;20389;-86
2023/09/18 01:06:39;;;;;;;14.45;8.18;;;486.40;2380.80;;;;;;4811655;29;20389;-85
2023/09/18 01:09:12;;;;;;;12.82;7.70;;;461.70;2380.80;;;;;;4811793;29;20347;-85
2023/09/18 01:11:59;;;;;;;16.20;8.90;;;461.70;2380.80;;;;;;4811981;29;20449;-85
2023/09/18 01:14:57;;;;;;;14.43;8.07;;;461.70;2380.80;;;;;;4811683;29;20365;-85
2023/09/18 01:17:24;;;;;;;11.85;7.63;;;461.70;2380.80;;;;;;4811378;29;20480;-86
2023/09/18 01:19:50;;;;;;;11.70;7.55;;;461.60;2380.80;;;;;;4810558;29;20465;-85
2023/09/18 01:22:18;;;;;;;15.95;8.52;;;461.60;2380.80;;;;;;4811344;29;20114;-86
2023/09/18 01:24:47;;;;;;;15.98;8.98;;;461.60;2380.80;;;;;;4809950;29;20484;-84
2023/09/18 01:27:16;;;;;;;14.13;8.15;;;461.60;2380.80;;;;;;4810354;29;20392;-85
2023/09/18 01:29:43;;;;;;;14.88;8.75;;;461.50;2380.80;;;;;;4809813;29;20438;-83
2023/09/18 01:32:09;;;;;;;12.50;8.32;;;461.50;2380.80;;;;;;4810514;29;20408;-86
2023/09/18 01:34:41;;;;;;;13.77;8.30;;;461.50;2380.80;;;;;;4810018;29;20402;-86
2023/09/18 01:37:11;;;;;;;13.60;8.25;;;461.50;2380.80;;;;;;4811300;29;20454;-84
2023/09/18 01:39:39;;;;;;;12.85;7.75;;;461.60;2380.80;;;;;;4811079;29;20355;-84
2023/09/18 01:42:06;;;;;;;12.13;7.80;;;461.50;2380.80;;;;;;4809877;29;20403;-86
2023/09/18 01:44:33;;;;;;;11.88;7.88;;;461.50;2380.80;;;;;;4810627;29;20452;-84
2023/09/18 01:47:02;;;;;;;14.95;7.93;;;461.40;2380.80;;;;;;4811203;29;20388;-84
2023/09/18 01:49:36;;;;;;;15.57;8.38;;;461.40;2380.80;;;;;;4810303;29;20405;-86
2023/09/18 01:52:04;;;;;;;13.02;8.25;;;461.50;2380.80;;;;;;4810119;29;20374;-85
2023/09/18 01:54:31;;;;;;;14.52;8.52;;;461.50;2380.80;;;;;;4811226;29;20405;-86
2023/09/18 01:56:57;;;;;;;12.63;8.10;;;461.50;2380.80;;;;;;4809290;29;20358;-82
2023/09/18 01:59:24;;;;;;;12.50;8.25;;;461.50;2380.80;;;;;;4809577;29;20509;-84
2023/09/18 02:01:50;;;;;;;13.27;8.38;;;461.50;2380.80;;;;;;4809944;29;20366;-85
2023/09/18 02:04:17;;;;;;;14.73;8.23;;;461.40;2380.80;;;;;;4809576;29;20031;-87
2023/09/18 02:06:44;;;;;;;14.35;8.23;;;461.40;2380.80;;;;;;4814742;29;20062;-86
2023/09/18 02:09:11;;;;;;;15.20;8.60;;;461.40;2380.80;;;;;;4810783;29;20376;-85
2023/09/18 02:11:39;;;;;;;12.57;8.23;;;461.50;2380.80;;;;;;4810385;29;20358;-84
2023/09/18 02:14:06;;;;;;;13.90;8.23;;;461.40;2380.80;;;;;;4810549;29;20462;-84
2023/09/18 02:23:16;;;;;;;13.63;8.43;;;461.30;2380.80;;;;;;4810863;29;20038;-86
2023/09/18 02:25:42;;;;;;;15.02;8.98;;;461.30;2380.80;;;;;;4811135;29;20382;-87
2023/09/18 02:28:08;;;;;;;15.20;8.52;;;461.20;2380.80;;;;;;4811267;29;20448;-86
2023/09/18 02:30:35;;;;;;;13.73;7.88;;;461.20;2380.80;;;;;;4810778;29;20366;-86
2023/09/18 02:33:03;;;;;;;13.27;8.27;;;461.10;2380.80;;;;;;4808951;29;20537;-85
2023/09/18 02:35:30;;;;;;;12.73;8.10;;;461.10;2380.80;;;;;;4809840;29;20362;-85
2023/09/18 02:37:56;;;;;;;15.23;8.73;;;461.00;2380.80;;;;;;4810571;29;20396;-85
2023/09/18 02:40:22;;;;;;;14.23;8.50;;;460.90;2380.80;;;;;;4809415;29;20113;-85
2023/09/18 02:42:48;;;;;;;14.30;8.60;;;460.90;2380.80;;;;;;4809822;29;20113;-84
2023/09/18 02:45:14;;;;;;;17.00;8.43;;;460.90;2380.80;;;;;;4810282;29;20419;-85
2023/09/18 02:47:41;;;;;;;14.07;8.93;;;460.80;2380.80;;;;;;4810042;29;20050;-84
2023/09/18 02:50:10;;;;;;;13.57;8.32;;;460.80;2380.80;;;;;;4809933;29;20362;-84
2023/09/18 02:52:37;;;;;;;16.13;8.32;;;436.10;2355.20;;;;;;4809614;29;20358;-87
2023/09/18 02:55:03;;;;;;;14.25;8.50;;;436.10;2355.20;;;;;;4808769;29;20414;-85
2023/09/18 02:57:29;;;;;;;15.45;8.30;;;436.00;2355.20;;;;;;4809170;29;20366;-86
2023/09/18 02:59:55;;;;;;;15.50;8.70;;;436.00;2355.20;;;;;;4809738;29;20023;-85
2023/09/18 03:02:21;;;;;;;14.00;8.77;;;436.00;2355.20;;;;;;4808012;29;20033;-85
2023/09/18 03:04:48;;;;;;;16.48;8.57;;;435.90;2048.00;;;;;;4809735;29;20098;-86
2023/09/18 03:07:14;;;;;;;15.48;8.77;;;435.90;1996.80;;;;;;4809398;29;20367;-83
2023/09/18 03:09:40;;;;;;;14.38;8.60;;;435.90;2252.80;;;;;;4808614;29;20376;-86
2023/09/18 03:12:06;;;;;;;14.38;8.65;;;435.90;2048.00;;;;;;4809383;29;20373;-86
2023/09/18 03:14:32;;;;;;;15.63;9.10;;;435.90;2355.20;;;;;;4809391;29;20362;-84
2023/09/18 03:16:58;;;;;;;15.07;8.57;;;435.90;2355.20;;;;;;4809496;29;20380;-83
2023/09/18 03:19:24;;;;;;;14.68;8.95;;;435.80;2355.20;;;;;;4809497;29;20374;-82
2023/09/18 03:21:51;;;;;;;14.25;9.05;;;435.80;2355.20;;;;;;4809237;29;20355;-85
2023/09/18 03:24:17;;;;;;;14.15;8.88;;;435.80;2355.20;;;;;;4809249;29;20460;-83
2023/09/18 03:26:43;;;;;;;15.82;8.65;;;436.00;2099.20;;;;;;4809555;29;20374;-85
2023/09/18 03:29:09;;;;;;;14.88;9.15;;;435.90;2355.20;;;;;;4809154;29;20034;-84
2023/09/18 03:31:35;;;;;;;14.25;8.50;;;435.70;2355.20;;;;;;4809135;29;20039;-83
2023/09/18 03:37:24;;;;;;;14.38;8.38;;;435.80;2355.20;;;;;;4808998;29;20431;-85
2023/09/18 03:39:49;;;;;;;16.30;9.20;;;435.60;2355.20;;;;;;4809432;29;20362;-83
2023/09/18 03:42:15;;;;;;;13.55;8.70;;;435.50;2355.20;;;;;;4809204;29;20034;-85
2023/09/18 03:44:41;;;;;;;17.25;9.65;;;435.60;2355.20;;;;;;4809021;29;20031;-85
2023/09/18 03:47:07;;;;;;;14.63;9.32;;;435.60;2355.20;;;;;;4807647;29;20121;-84
2023/09/18 03:49:33;;;;;;;14.93;9.35;;;435.50;2355.20;;;;;;4808734;29;20385;-84
2023/09/18 03:52:00;;;;;;;16.50;9.25;;;;;;;;;;4808656;29;20034;-84
2023/09/18 03:54:26;;;;;;;15.02;9.52;;;435.90;2355.20;;;;;;4807207;29;20499;-84
2023/09/18 03:56:52;;;;;;;16.33;10.05;;;435.60;2355.20;;;;;;4806949;29;20386;-84
2023/09/18 03:59:18;;;;;;;16.08;9.77;;;435.70;2355.20;;;;;;4808316;29;20327;-84
2023/09/18 04:01:45;;;;;;;16.90;10.07;;;435.70;2355.20;;;;;;4809861;29;20438;-84
2023/09/18 04:07:34;;;;;;;18.52;9.73;;;435.60;2355.20;;;;;;4802364;29;20057;-85
2023/09/18 04:10:00;;;;;;;15.50;9.82;;;435.60;2355.20;;;;;;4807399;29;20530;-84
2023/09/18 04:12:26;;;;;;;17.98;10.38;;;435.50;2355.20;;;;;;4808791;29;20474;-86
2023/09/18 04:14:52;;;;;;;18.23;10.23;;;435.30;2355.20;;;;;;4808648;29;20383;-85
2023/09/18 04:17:21;;;;;;;16.25;10.00;;;435.40;2355.20;;;;;;4808038;29;20034;-85
2023/09/18 04:19:48;;;;;;;16.40;10.10;;;435.40;2355.20;;;;;;4808575;29;20381;-85
2023/09/18 04:22:14;;;;;;;17.13;10.30;;;435.30;2355.20;;;;;;4807482;29;20462;-84
2023/09/18 04:24:40;;;;;;;18.13;10.68;;;435.30;2355.20;;;;;;4807712;29;20369;-85
2023/09/18 04:27:06;;;;;;;17.45;10.07;;;435.30;2355.20;;;;;;4807216;29;20410;-86
2023/09/18 04:29:32;;;;;;;18.30;10.10;;;435.20;2355.20;;;;;;4808301;29;20415;-85
2023/09/18 04:31:59;;;;;;;19.08;9.90;;;435.20;2355.20;;;;;;4808701;29;20039;-84
2023/09/18 04:38:10;;;;;;;16.63;9.55;;;435.40;2355.20;;;;;;4808911;29;20037;-85
2023/09/18 04:40:37;;;;;;;15.73;10.10;;;435.50;2355.20;;;;;;4807719;29;20370;-84
2023/09/18 04:43:04;;;;;;;15.77;9.55;;;435.60;2355.20;;;;;;4808500;29;20030;-85
2023/09/18 04:45:31;;;;;;;15.52;10.27;;;435.60;2355.20;;;;;;4807775;29;20381;-85
2023/09/18 04:47:58;;;;;;;16.02;9.77;;;435.70;2355.20;;;;;;4808096;29;20023;-84
2023/09/18 04:50:26;;;;;;;16.92;10.20;;;435.70;2355.20;;;;;;4808716;29;20482;-85
2023/09/18 04:52:54;;;;;;;17.73;10.48;;;435.70;2355.20;;;;;;4809132;29;20420;-86
2023/09/18 04:55:21;;;;;;;17.92;10.05;;;435.80;2355.20;;;;;;4807344;29;20480;-86
2023/09/18 04:57:47;;;;;;;15.20;9.52;;;435.80;2355.20;;;;;;4809014;29;20022;-86
2023/09/18 05:00:13;;;;;;;16.02;10.23;;;435.80;2355.20;;;;;;4808556;29;20422;-84
2023/09/18 05:02:41;;;;;;;15.63;10.13;;;435.90;2278.40;;;;;;4808658;29;20373;-86
2023/09/18 05:05:10;;;;;;;17.05;9.77;;;435.90;2355.20;;;;;;4807282;29;20445;-85
2023/09/18 05:07:36;;;;;;;16.55;9.57;;;435.90;2355.20;;;;;;4806834;29;20545;-85
2023/09/18 05:10:04;;;;;;;16.30;10.00;;;436.00;2355.20;;;;;;4807161;29;20370;-85
2023/09/18 05:12:31;;;;;;;16.80;9.60;;;436.00;2355.20;;;;;;4807342;29;20461;-84
2023/09/18 05:14:58;;;;;;;16.65;10.20;;;436.00;2355.20;;;;;;4807606;29;20391;-84
2023/09/18 05:17:41;;;;;;;16.08;10.20;;;436.10;2355.20;;;;;;4808440;29;20415;-86
2023/09/18 05:20:13;;;;;;;17.65;10.30;;;460.80;2380.80;;;;;;4809481;29;20374;-84
2023/09/18 05:22:40;;;;;;;16.15;9.50;;;460.90;2380.80;;;;;;4809191;29;20477;-83
2023/09/18 05:25:06;;;;;;;21.10;10.68;;;461.00;2380.80;;;;;;4811368;29;20475;-86
2023/09/18 05:27:33;;;;;;;16.27;9.73;;;461.10;2380.80;;;;;;4811197;29;20373;-85
2023/09/18 05:29:59;;;;;;;15.55;9.80;;;461.10;2380.80;;;;;;4812285;29;20407;-86
2023/09/18 05:32:25;;;;;;;15.98;9.98;;;461.20;2124.80;;;;;;4810613;29;20023;-86
2023/09/18 05:34:52;;;;;;;15.93;9.98;;;461.30;2380.80;;;;;;4810054;29;20033;-85
2023/09/18 05:37:18;;;;;;;15.45;9.48;;;461.30;2380.80;;;;;;4812832;29;20394;-85
2023/09/18 05:39:44;;;;;;;16.48;9.45;;;461.40;2380.80;;;;;;4811783;29;20369;-85
2023/09/18 05:42:11;;;;;;;15.52;10.15;;;461.60;2380.80;;;;;;4811900;29;20395;-85
2023/09/18 05:44:39;;;;;;;15.85;9.48;;;461.70;2380.80;;;;;;4810116;29;20381;-85
2023/09/18 05:47:05;;;;;;;15.43;9.23;;;461.70;2380.80;;;;;;4811356;29;20405;-85
2023/09/18 05:52:53;;;;;;;16.58;9.52;;;486.50;2380.80;;;;;;4812989;29;20037;-86
2023/09/18 05:55:20;;;;;;;18.83;10.98;;;486.40;2380.80;;;;;;4812788;29;20046;-88
2023/09/18 05:57:46;;;;;;;19.13;10.82;;;486.40;2380.80;;;;;;4812680;29;20381;-84
2023/09/18 06:00:14;;;;;;;18.77;10.52;;;461.70;2380.80;;;;;;4812533;29;20023;-84
2023/09/18 06:02:40;;;;;;;16.83;9.68;;;486.40;2380.80;;;;;;4812204;29;20407;-86
2023/09/18 06:05:11;;;;;;;13.90;9.60;;;;;;;;;;4812563;29;20431;-84
2023/09/18 06:07:37;;;;;;;15.60;9.80;;;;;;;;;;4810546;29;20484;-85
2023/09/18 06:10:03;;;;;;;13.88;8.80;;;;;;;;;;4810921;29;20393;-85
2023/09/18 06:12:30;;;;;;;12.65;8.98;;;717.10;2406.40;;;;;;4809942;29;20351;-84
2023/09/18 06:14:56;;;;;;;13.68;9.48;;;;;;;;;;4811166;29;20462;-85
2023/09/18 06:17:22;;;;;;;12.50;8.38;;;;;;;;;;4810497;29;20389;-84
2023/09/18 06:23:11;;;;;;;12.48;8.48;;;;;;;;;;4811860;29;20046;-85
2023/09/18 06:25:38;;;;;;;10.77;8.10;;;;;;;;;;4811334;29;20047;-84
2023/09/18 06:28:05;;;;;;;11.10;8.20;;;845.00;1638.40;;;;;;4810782;29;20478;-88
2023/09/18 06:30:33;;;;;;;14.13;8.73;;;;;;;;;;4812639;29;20326;-85
2023/09/18 06:32:59;;;;;;;12.65;9.13;;;;;;;;;;4811649;29;20454;-87
2023/09/18 06:35:25;;;;;;;14.52;9.15;;;819.40;1664.00;;;;;;4812554;29;20481;-84
2023/09/18 06:37:54;;;;;;;12.30;8.93;;;845.10;1638.40;;;;;;4812757;29;20057;-85
2023/09/18 06:40:20;;;;;;;11.73;8.50;;;870.60;1587.20;;;;;;4812549;29;20030;-86
2023/09/18 06:42:49;;;;;;;12.52;8.52;;;870.50;1561.60;;;;;;4812571;29;20362;-85
2023/09/18 06:45:16;;;;;;;12.18;8.60;;;845.70;1536.00;;;;;;4813227;29;20041;-85
2023/09/18 06:47:42;;;;;;;11.75;8.15;;;896.50;1459.20;;;;;;4814179;29;20458;-86
2023/09/18 06:50:12;;;;;;;10.70;7.78;;;947.90;1356.80;;;;;;4813669;29;20365;-85
2023/09/18 06:52:41;;;;;;;10.68;8.05;;;947.80;1356.80;;;;;;4813883;29;20365;-86
2023/09/18 06:55:08;;;;;;;10.77;7.80;;;973.50;1280.00;;;;;;4813241;29;20031;-85
2023/09/18 06:57:34;;;;;;;11.52;8.35;;;973.40;1305.60;;;;;;4811958;29;20377;-85
2023/09/18 07:00:01;;;;;;;10.13;8.13;;;;;;;;;;4811700;29;20485;-85
2023/09/18 07:02:27;;;;;;;11.82;7.72;;;948.10;1280.00;;;;;;4812442;29;20079;-87
2023/09/18 07:08:19;;;;;;;9.50;7.95;;;;;;;;;;4805490;29;20115;-86
2023/09/18 07:10:45;;;;;;;10.27;7.80;;;;;;;;;;4812268;29;20037;-86
2023/09/18 07:13:13;;;;;;;11.18;8.13;;;;;;;;;;4813906;29;20076;-84
2023/09/18 07:15:39;;;;;;;12.57;8.25;;;922.30;1331.20;;;;;;4814235;29;20485;-86
2023/09/18 07:18:05;;;;;;;10.13;7.82;;;870.70;1459.20;;;;;;4814625;29;20371;-87
2023/09/18 07:20:32;;;;;;;9.82;7.80;;;845.30;1484.80;;;;;;4813672;29;20027;-85
2023/09/18 07:23:00;;;;;;;10.18;8.05;;;845.20;1484.80;;;;;;4811371;29;20530;-85
2023/09/18 07:25:27;;;;;;;11.27;8.23;;;794.30;1612.80;;;;;;4810314;29;20468;-87
2023/09/18 07:27:53;;;;;;;11.05;8.45;;;743.20;1740.80;;;;;;4810549;29;20407;-85
2023/09/18 07:30:21;;;;;;;11.90;8.82;;;;;;;;;;4810792;29;20366;-84
2023/09/18 07:32:50;;;;;;;10.48;8.18;;;;;;;;;;4809889;29;20416;-87
2023/09/18 07:35:17;;;;;;;13.55;8.32;;;;;;;;;;4810592;29;20408;-84
2023/09/18 07:37:45;;;;;;;13.50;8.43;;;;;;;;;;4808888;29;20470;-85
2023/09/18 07:40:12;;;;;;;11.65;8.68;;;;;;;;;;4809283;29;20408;-84
2023/09/18 07:42:43;;;;;;;11.90;9.02;;;691.20;2099.20;;;;;;4809893;29;20480;-86
2023/09/18 07:45:10;;;;;;;12.30;8.88;;;666.10;2227.20;;;;;;4809543;29;20363;-87
2023/09/18 07:47:39;;;;;;;12.00;8.40;;;666.00;2278.40;;;;;;4807950;29;20377;-86
2023/09/18 07:53:27;;;;;;;10.60;8.55;;;666.00;2355.20;;;;;;4809669;29;20125;-86
2023/09/18 07:55:58;;;;;;;13.23;8.50;;;;;;;;;;4809867;29;20037;-86
2023/09/18 07:58:27;;;;;;;10.85;8.30;;;666.50;2406.40;;;;;;4809752;29;20065;-85
2023/09/18 08:00:59;;;;;;;9.85;8.07;;;666.30;2380.80;;;;;;4809784;29;20449;-85
2023/09/18 08:03:26;;;;;;;12.48;8.23;;;666.20;2406.40;;;;;;4809941;29;20416;-85
2023/09/18 08:05:54;;;;;;;12.05;8.52;;;665.90;2432.00;;;;;;4810475;29;20509;-85
2023/09/18 08:08:23;;;;;;;11.20;8.75;;;666.10;2432.00;;;;;;4809561;29;20439;-84
2023/09/18 08:10:50;;;;;;;11.30;8.32;;;;;;;;;;4810032;29;20392;-87
2023/09/18 08:13:16;;;;;;;9.60;7.85;;;691.40;2380.80;;;;;;4809348;29;20377;-84
2023/09/18 08:15:46;;;;;;;11.23;8.30;;;;;;;;;;4809201;29;20374;-85
2023/09/18 08:18:16;;;;;;;11.48;8.60;;;;;;;;;;4808553;29;20545;-84
2023/09/18 08:20:43;;;;;;;12.07;8.48;;;;;;;;;;4809814;29;20046;-84
2023/09/18 08:23:12;;;;;;;11.40;8.30;;;;;;;;;;4808547;29;20469;-84
2023/09/18 08:25:40;;;;;;;11.82;8.20;;;;;;;;;;4809303;29;20386;-86
2023/09/18 08:28:06;;;;;;;12.52;8.18;;;;;;;;;;4810197;29;20026;-87
2023/09/18 08:30:33;;;;;;;11.40;8.43;;;;;;;;;;4811588;29;20516;-84
2023/09/18 08:33:00;;;;;;;11.60;8.45;;;;;;;;;;4809641;29;20454;-85
2023/09/18 08:35:30;;;;;;;12.45;8.38;;;;;;;;;;4809265;29;20357;-86
2023/09/18 08:37:56;;;;;;;10.43;7.88;;;;;;;;;;4809076;29;20403;-83
2023/09/18 08:40:23;;;;;;;10.05;8.45;;;;;;;;;;4809152;29;20022;-87
2023/09/18 08:42:55;;;;;;;10.75;7.85;;;717.20;2201.60;;;;;;4809433;29;20410;-85
2023/09/18 08:45:34;;;;;;;10.68;8.48;;;717.00;2227.20;;;;;;4808891;29;20393;-86
2023/09/18 08:48:01;;;;;;;9.80;7.78;;;;;;;;;;4808089;29;20370;-86
2023/09/18 08:50:28;;;;;;;11.63;7.72;;;717.50;2176.00;;;;;;4809180;29;20365;-86
2023/09/18 08:52:59;;;;;;;10.80;8.02;;;;;;;;;;4809016;29;20537;-86
2023/09/18 08:55:25;;;;;;;10.48;8.18;;;;;;;;;;4809175;29;20365;-85
2023/09/18 08:57:57;;;;;;;11.80;8.13;;;742.40;2150.40;;;;;;4807885;29;20466;-85
2023/09/18 09:00:24;;;;;;;9.52;7.43;;;;;;;;;;4810463;29;20419;-86
2023/09/18 09:02:52;;;;;;;11.65;8.10;;;;;;;;;;4811516;29;20417;-87
2023/09/18 09:08:40;;;;;;;9.98;7.70;;;742.50;2073.60;;;;;;4809099;29;20085;-86
2023/09/18 09:11:06;;;;;;;11.02;7.82;;;742.50;2073.60;;;;;;4811138;29;20480;-86
2023/09/18 09:13:33;;;;;;;11.27;7.95;;;742.50;2099.20;;;;;;4812467;29;20027;-87
2023/09/18 09:16:00;;;;;;;10.70;8.43;;;742.50;2048.00;;;;;;4812187;29;20377;-86
2023/09/18 09:18:31;;;;;;;10.20;8.27;;;742.60;2048.00;;;;;;4812059;29;20423;-81
2023/09/18 09:21:00;;;;;;;10.27;8.32;;;742.80;2048.00;;;;;;4812038;29;20373;-87
2023/09/18 09:23:28;;;;;;;9.73;8.05;;;742.80;2022.40;;;;;;4812114;29;20347;-85
2023/09/18 09:26:13;;;;;;;9.90;7.63;;;742.90;2048.00;;;;;;4811928;29;20373;-84
2023/09/18 09:28:39;;;;;;;10.45;7.97;;;742.90;1996.80;;;;;;4810154;29;20477;-82
2023/09/18 09:31:06;;;;;;;10.93;8.40;;;743.10;1996.80;;;;;;4811742;29;20351;-84
2023/09/18 09:33:32;;;;;;;13.02;8.68;;;743.20;1996.80;;;;;;4811792;29;20347;-84
2023/09/18 09:35:59;;;;;;;9.88;8.10;;;743.00;1996.80;;;;;;4810493;29;20379;-83
2023/09/18 09:38:33;;;;;;;9.70;8.07;;;742.90;1996.80;;;;;;4811986;29;20378;-85
2023/09/18 09:41:06;;;;;;;11.43;8.23;;;768.00;1971.20;;;;;;4810609;29;20030;-85
2023/09/18 09:43:33;;;;;;;13.15;8.30;;;743.00;1996.80;;;;;;4811828;29;20335;-86
2023/09/18 09:46:04;;;;;;;11.45;8.55;;;;;;;;;;4811932;29;20451;-80
2023/09/18 09:48:33;;;;;;;11.25;7.85;;;;;;;;;;4811355;29;20374;-83
2023/09/18 09:51:00;;;;;;;10.38;8.30;;;;;;;;;;4811735;29;20361;-83
2023/09/18 09:53:44;;;;;;;10.80;8.50;;;;;;;;;;4811485;29;20373;-84
2023/09/18 09:56:11;;;;;;;9.85;8.05;;;;;;;;;;4811655;29;20031;-82
2023/09/18 09:58:38;;;;;;;13.35;8.20;;;768.00;1894.40;;;;;;4814273;29;20463;-86
2023/09/18 10:01:10;;;;;;;10.77;8.10;;;768.00;1920.00;;;;;;4810858;29;20484;-85
2023/09/18 10:03:39;;;;;;;13.32;8.40;;;768.00;1920.00;;;;;;4811396;29;20359;-85
2023/09/18 10:06:06;;;;;;;10.27;7.60;;;768.10;1894.40;;;;;;4810999;29;20332;-88
2023/09/18 10:08:34;;;;;;;9.70;8.02;;;768.20;1894.40;;;;;;4811574;29;20054;-88
2023/09/18 10:11:10;;;;;;;11.75;8.23;;;768.50;1894.40;;;;;;4810911;29;20403;-84
2023/09/18 10:13:49;;;;;;;10.00;8.27;;;793.60;1868.80;;;;;;4811110;29;20357;-81
2023/09/18 10:16:19;;;;;;;10.15;8.00;;;768.90;1817.60;;;;;;4811966;29;20347;-84
2023/09/18 10:19:09;;;;;;;10.65;8.18;;;;;;;;;;4810062;29;20434;-85
2023/09/18 10:22:10;;;;;;;10.20;7.70;;;794.00;1792.00;;;;;;4800283;29;20550;-86
2023/09/18 10:24:39;;;;;;;9.13;7.80;;;794.20;1792.00;;;;;;4809730;29;20484;-82
2023/09/18 10:27:06;;;;;;;12.13;7.65;;;793.70;1792.00;;;;;;4809864;29;20454;-84
2023/09/18 10:29:34;;;;;;;8.85;7.35;;;768.80;1792.00;;;;;;4812074;29;20343;-86
2023/09/18 10:32:10;;;;;;;9.45;7.63;;;793.80;1792.00;;;;;;4811071;29;20374;-81
2023/09/18 10:34:37;;;;;;;9.43;7.85;;;793.70;1766.40;;;;;;4809611;29;20551;-82
2023/09/18 10:37:07;;;;;;;10.45;7.50;;;793.70;1740.80;;;;;;4811000;29;20405;-83
2023/09/18 10:39:43;;;;;;;10.95;7.80;;;794.10;1740.80;;;;;;4811606;29;20374;-83
2023/09/18 10:42:10;;;;;;;12.27;7.88;;;793.60;1792.00;;;;;;4812263;29;20434;-86
2023/09/18 10:44:39;;;;;;;9.63;7.85;;;794.10;1740.80;;;;;;4809636;29;20385;-84
2023/09/18 10:47:08;;;;;;;11.93;7.82;;;794.20;1715.20;;;;;;4809990;29;20474;-88
2023/09/18 10:49:36;;;;;;;9.48;7.50;;;793.90;1740.80;;;;;;4809649;29;20385;-83
2023/09/18 10:52:03;;;;;;;9.23;8.20;;;794.10;1689.60;;;;;;4809648;29;20557;-83
2023/09/18 10:54:30;;;;;;;11.25;8.23;;;;;;;;;;4810526;29;20419;-86
2023/09/18 10:56:57;;;;;;;10.82;8.23;;;;;;;;;;4812177;29;20023;-85
2023/09/18 10:59:24;;;;;;;11.23;8.00;;;;;;;;;;4812531;29;20029;-86
2023/09/18 11:01:50;;;;;;;9.65;7.90;;;;;;;;;;4810747;29;20056;-85
2023/09/18 11:04:20;;;;;;;9.05;7.93;;;;;;;;;;4808904;29;20377;-83
2023/09/18 11:07:05;;;;;;;10.38;8.20;;;;;;;;;;4808913;29;20359;-82
2023/09/18 11:09:33;;;;;;;9.55;7.88;;;;;;;;;;4810726;29;20440;-84
2023/09/18 11:12:02;;;;;;;8.98;7.57;;;;;;;;;;4810542;29;20060;-84
2023/09/18 11:14:49;;;;;;;11.52;7.80;;;;;;;;;;4811859;29;20420;-84
2023/09/18 11:17:29;;;;;;;12.98;9.50;;;;;;;;;;4810404;29;20365;-82
2023/09/18 11:20:11;;;;;;;10.38;8.07;;;;;;;;;;4809975;29;20035;-81
2023/09/18 11:22:39;;;;;;;9.90;8.52;;;;;;;;;;4808887;29;20382;-86
2023/09/18 11:25:24;;;;;;;10.95;9.13;;;;;;;;;;4808922;29;20423;-82
2023/09/18 11:27:57;;;;;;;9.85;8.85;;;;;;;;;;4809378;29;20076;-85
2023/09/18 11:30:24;;;;;;;10.32;8.27;;;;;;;;;;4809445;29;20354;-83
2023/09/18 11:32:51;;;;;;;10.13;8.27;;;;;;;;;;4809862;29;20401;-85
2023/09/18 11:35:19;;;;;;;9.90;8.43;;;;;;;;;;4809578;29;20433;-82
2023/09/18 11:37:46;;;;;;;12.60;8.90;;;;;;;;;;4809137;29;20355;-85
2023/09/18 11:40:38;;;;;;;12.65;9.50;;;;;;;;;;4808554;29;20381;-82
2023/09/18 11:43:23;;;;;;;10.13;8.13;;;;;;;;;;4812178;29;20370;-84
2023/09/18 11:45:51;;;;;;;12.25;10.05;;;;;;;;;;4811822;29;20486;-87
2023/09/18 11:48:18;;;;;;;10.10;8.23;;;;;;;;;;4812065;29;20475;-81
2023/09/18 11:50:45;;;;;;;13.30;9.02;;;;;;;;;;4811836;29;20355;-88
2023/09/18 11:53:14;;;;;;;9.23;7.53;;;;;;;;;;4811157;29;20944;-89
2023/09/18 11:55:41;;;;;;;9.32;7.22;;;;;;;;;;4812271;29;20038;-87
2023/09/18 11:58:09;;;;;;;8.43;7.05;;;;;;;;;;4810699;29;20398;-85
2023/09/18 12:00:45;;;;;;;11.55;7.93;;;;;;;;;;4809972;29;20373;-87
2023/09/18 12:03:27;;;;;;;8.00;6.47;;;;;;;;;;4809552;29;20027;-87
2023/09/18 12:05:54;;;;;;;10.93;8.20;;;;;;;;;;4809501;29;20351;-85
2023/09/18 12:08:20;;;;;;;9.43;7.78;;;;;;;;;;4808675;29;20046;-86
2023/09/18 12:10:50;;;;;;;9.43;7.30;;;;;;;;;;4809447;29;20351;-84
2023/09/18 12:13:18;;;;;;;10.88;8.40;;;;;;;;;;4809863;29;20431;-84
2023/09/18 12:15:44;;;;;;;16.25;11.13;;;;;;;;;;4808238;29;20361;-85
2023/09/18 12:18:14;;;;;;;9.65;8.00;;;;;;;;;;4809611;29;20361;-83
2023/09/18 12:20:48;;;;;;;14.70;10.43;;;;;;;;;;4808287;29;20430;-88
2023/09/18 12:23:14;;;;;;;12.38;9.10;;;;;;;;;;4809380;29;20365;-84
2023/09/18 12:25:41;;;;;;;11.07;9.10;;;;;;;;;;4809292;29;20533;-86
2023/09/18 12:28:08;;;;;;;9.32;7.65;;;;;;;;;;4810507;29;20389;-86
2023/09/18 12:30:35;;;;;;;9.18;7.57;;;;;;;;;;4809937;29;20424;-84
2023/09/18 12:33:01;;;;;;;9.57;7.22;;;;;;;;;;4807958;29;20047;-83
2023/09/18 12:35:29;;;;;;;11.38;7.70;;;;;;;;;;4808653;29;20388;-84
2023/09/18 12:38:00;;;;;;;9.77;7.25;;;;;;;;;;4808259;29;20382;-88
2023/09/18 12:40:27;;;;;;;9.38;8.05;;;;;;;;;;4807602;29;20469;-83
2023/09/18 12:42:57;;;;;;;8.93;7.65;;;;;;;;;;4807480;29;20381;-84
2023/09/18 12:45:29;;;;;;;9.10;7.18;;;;;;;;;;4806941;29;20481;-84
2023/09/18 12:47:56;;;;;;;8.80;6.47;;;;;;;;;;4807347;29;20455;-85
2023/09/18 12:50:41;;;;;;;8.80;7.32;;;;;;;;;;4807709;29;20369;-85
2023/09/18 12:53:12;;;;;;;9.20;7.30;;;;;;;;;;4808390;29;20043;-88
2023/09/18 12:55:38;;;;;;;8.25;7.03;;;;;;;;;;4807379;29;20406;-86
2023/09/18 12:58:07;;;;;;;8.73;6.70;;;845.10;1433.60;;;;;;4808621;29;20423;-86
2023/09/18 13:00:34;;;;;;;7.90;6.63;;;;;;;;;;4809138;29;20376;-84
2023/09/18 13:03:04;;;;;;;8.90;7.28;;;820.00;1433.60;;;;;;4806563;29;20358;-85
2023/09/18 13:05:37;;;;;;;9.05;7.10;;;820.10;1433.60;;;;;;4808462;29;20034;-86
2023/09/18 13:08:06;;;;;;;9.70;6.78;;;;;;;;;;4806945;29;20423;-82
2023/09/18 13:10:45;;;;;;;8.40;7.30;;;;;;;;;;4808783;29;20363;-87
2023/09/18 13:13:18;;;;;;;9.13;7.28;;;;;;;;;;4806925;29;20439;-83
2023/09/18 13:15:47;;;;;;;9.10;7.30;;;;;;;;;;4808401;29;20412;-83
2023/09/18 13:18:16;;;;;;;8.52;6.90;;;;;;;;;;4808284;29;20435;-83
2023/09/18 13:20:43;;;;;;;9.23;6.80;;;;;;;;;;4808436;29;20332;-84
2023/09/18 13:23:10;;;;;;;8.70;6.57;;;;;;;;;;4807685;29;20374;-83
2023/09/18 13:25:38;;;;;;;9.20;6.90;;;;;;;;;;4809477;29;20377;-84
2023/09/18 13:28:08;;;;;;;7.97;6.95;;;;;;;;;;4808509;29;20371;-82
2023/09/18 13:30:39;;;;;;;9.13;7.30;;;;;;;;;;4809604;29;20458;-85
2023/09/18 13:33:06;;;;;;;9.07;7.35;;;;;;;;;;4808047;29;20343;-82
2023/09/18 13:35:33;;;;;;;8.77;6.60;;;;;;;;;;4808337;29;20466;-81
2023/09/18 13:38:00;;;;;;;9.30;6.47;;;820.00;1433.60;;;;;;4807850;29;20038;-82
2023/09/18 13:40:27;;;;;;;8.20;6.93;;;;;;;;;;4808518;29;20378;-83